createdAt,value
2022-08-11T00:02:28.920Z,24.40
2022-08-11T00:04:58.771Z,24.35
2022-08-11T00:07:28.253Z,24.31
2022-08-11T00:09:56.999Z,24.27
2022-08-11T00:12:25.353Z,24.22
2022-08-11T00:14:59.798Z,24.18
2022-08-11T00:17:32.080Z,24.11
2022-08-11T00:20:15.413Z,24.05
2022-08-11T00:22:47.626Z,23.98
2022-08-11T00:25:19.117Z,23.94
2022-08-11T00:27:48.658Z,23.88
2022-08-11T00:30:18.516Z,23.83
2022-08-11T00:32:56.410Z,23.78
2022-08-11T00:35:56.047Z,23.77
2022-08-11T00:38:30.558Z,23.75
2022-08-11T00:41:11.225Z,23.75
2022-08-11T00:43:51.811Z,23.74
2022-08-11T00:46:38.986Z,23.72
2022-08-11T00:49:17.311Z,23.70
2022-08-11T00:52:08.622Z,23.66
2022-08-11T00:55:10.485Z,23.61
2022-08-11T00:58:10.353Z,23.57
2022-08-11T01:01:06.647Z,23.55
2022-08-11T01:04:00.423Z,23.51
2022-08-11T01:06:53.807Z,23.47
2022-08-11T01:09:50.641Z,23.43
2022-08-11T01:12:45.096Z,23.39
2022-08-11T01:16:08.011Z,23.31
2022-08-11T01:19:17.048Z,23.23
2022-08-11T01:22:21.447Z,23.16
2022-08-11T01:25:07.673Z,23.12
2022-08-11T01:28:03.978Z,23.05
2022-08-11T01:30:57.687Z,22.98
2022-08-11T01:34:09.085Z,22.88
2022-08-11T01:37:00.038Z,22.77
2022-08-11T01:40:06.849Z,22.72
2022-08-11T01:43:24.367Z,22.67
2022-08-11T01:45:56.726Z,22.64
2022-08-11T01:48:38.030Z,22.58
2022-08-11T01:51:34.290Z,22.51
2022-08-11T01:54:06.846Z,22.49
2022-08-11T01:56:44.080Z,22.45
2022-08-11T01:59:18.423Z,22.44
2022-08-11T02:02:07.032Z,22.37
2022-08-11T02:04:39.667Z,22.35
2022-08-11T02:07:18.479Z,22.31
2022-08-11T02:09:56.986Z,22.27
2022-08-11T02:12:43.810Z,22.21
2022-08-11T02:15:28.251Z,22.20
2022-08-11T02:18:05.134Z,22.21
2022-08-11T02:21:00.714Z,22.21
2022-08-11T02:24:05.668Z,22.20
2022-08-11T02:26:41.299Z,22.18
2022-08-11T02:29:18.043Z,22.18
2022-08-11T02:32:29.989Z,22.15
2022-08-11T02:35:05.584Z,22.13
2022-08-11T02:37:45.358Z,22.12
2022-08-11T02:40:24.222Z,22.12
2022-08-11T02:43:05.623Z,22.12
2022-08-11T02:45:41.829Z,22.10
2022-08-11T02:48:35.793Z,22.08
2022-08-11T02:51:22.118Z,22.06
2022-08-11T02:54:00.875Z,22.03
2022-08-11T02:56:45.758Z,21.98
2022-08-11T02:59:48.286Z,21.94
2022-08-11T03:02:27.843Z,21.88
2022-08-11T03:05:09.160Z,21.80
2022-08-11T03:07:49.768Z,21.75
2022-08-11T03:10:23.377Z,21.71
2022-08-11T03:13:15.920Z,21.67
2022-08-11T03:16:08.148Z,21.62
2022-08-11T03:18:51.432Z,21.56
2022-08-11T03:21:25.607Z,21.53
2022-08-11T03:24:20.469Z,21.46
2022-08-11T03:27:03.748Z,21.41
2022-08-11T03:29:36.472Z,21.37
2022-08-11T03:32:11.538Z,21.33
2022-08-11T03:34:39.845Z,21.31
2022-08-11T03:37:46.744Z,21.26
2022-08-11T03:40:52.064Z,21.20
2022-08-11T03:43:35.830Z,21.14
2022-08-11T03:46:17.906Z,21.11
2022-08-11T03:48:58.469Z,21.05
2022-08-11T03:51:44.841Z,21.02
2022-08-11T03:54:32.320Z,20.93
2022-08-11T03:57:36.581Z,20.83
2022-08-11T04:00:30.775Z,20.81
2022-08-11T04:03:56.507Z,20.77
2022-08-11T04:07:02.994Z,20.75
2022-08-11T04:09:57.124Z,20.74
2022-08-11T04:13:00.756Z,20.76
2022-08-11T04:16:10.791Z,20.73
2022-08-11T04:19:31.226Z,20.74
2022-08-11T04:22:20.053Z,20.76
2022-08-11T04:25:30.068Z,20.74
2022-08-11T04:28:28.443Z,20.77
2022-08-11T04:31:10.246Z,20.78
2022-08-11T04:34:30.179Z,20.76
2022-08-11T04:37:35.355Z,20.78
2022-08-11T04:40:56.264Z,20.77
2022-08-11T04:44:07.611Z,20.77
2022-08-11T04:46:58.322Z,20.78
2022-08-11T04:50:10.919Z,20.78
2022-08-11T04:53:28.787Z,20.76
2022-08-11T04:56:27.932Z,20.75
2022-08-11T04:59:39.047Z,20.67
2022-08-11T05:02:37.836Z,20.62
2022-08-11T05:05:32.963Z,20.58
2022-08-11T05:08:50.289Z,20.51
2022-08-11T05:11:46.031Z,20.48
2022-08-11T05:14:52.436Z,20.45
2022-08-11T05:17:49.497Z,20.46
2022-08-11T05:20:35.102Z,20.44
2022-08-11T05:23:25.716Z,20.42
2022-08-11T05:26:46.807Z,20.41
2022-08-11T05:29:42.728Z,20.38
2022-08-11T05:32:32.366Z,20.36
2022-08-11T05:35:03.322Z,20.36
2022-08-11T05:37:39.646Z,20.34
2022-08-11T05:40:28.590Z,20.35
2022-08-11T05:43:16.964Z,20.36
2022-08-11T05:46:14.504Z,20.36
2022-08-11T05:49:01.349Z,20.35
2022-08-11T05:51:55.131Z,20.34
2022-08-11T05:54:43.070Z,20.33
2022-08-11T05:57:49.575Z,20.32
2022-08-11T06:00:11.810Z,20.33
2022-08-11T06:02:45.454Z,20.35
2022-08-11T06:05:14.376Z,20.37
2022-08-11T06:07:47.212Z,20.38
2022-08-11T06:10:28.112Z,20.40
2022-08-11T06:12:57.309Z,20.46
2022-08-11T06:15:27.214Z,20.51
2022-08-11T06:17:58.754Z,20.56
2022-08-11T06:20:27.468Z,20.64
2022-08-11T06:23:03.918Z,20.71
2022-08-11T06:25:33.692Z,20.79
2022-08-11T06:28:02.408Z,20.88
2022-08-11T06:30:40.926Z,20.94
2022-08-11T06:33:17.108Z,21.04
2022-08-11T06:35:58.491Z,21.14
2022-08-11T06:38:42.896Z,21.40
2022-08-11T06:41:33.166Z,21.74
2022-08-11T06:44:29.270Z,22.12
2022-08-11T06:47:05.279Z,22.47
2022-08-11T06:50:08.406Z,22.86
2022-08-11T06:52:37.756Z,23.26
2022-08-11T06:55:57.116Z,23.60
2022-08-11T06:58:16.118Z,23.92
2022-08-11T07:00:45.532Z,24.18
2022-08-11T07:03:17.855Z,24.53
2022-08-11T07:05:53.052Z,24.81
2022-08-11T07:09:02.435Z,25.11
2022-08-11T07:12:21.114Z,25.47
2022-08-11T07:15:22.194Z,25.82
2022-08-11T07:18:12.906Z,26.15
2022-08-11T07:21:02.098Z,26.47
2022-08-11T07:23:53.279Z,26.76
2022-08-11T07:26:42.798Z,26.91
2022-08-11T07:29:14.237Z,27.01
2022-08-11T07:31:50.127Z,27.09
2022-08-11T07:34:21.571Z,27.22
2022-08-11T07:36:54.929Z,27.49
2022-08-11T07:39:27.602Z,27.78
2022-08-11T07:41:58.830Z,28.10
2022-08-11T07:44:34.643Z,28.36
2022-08-11T07:47:22.535Z,28.62
2022-08-11T07:50:11.088Z,28.90
2022-08-11T07:52:40.648Z,29.12
2022-08-11T07:55:16.881Z,29.26
2022-08-11T07:58:15.887Z,29.39
2022-08-11T08:01:10.575Z,29.51
2022-08-11T08:04:07.000Z,29.79
2022-08-11T08:06:53.146Z,30.04
2022-08-11T08:09:40.724Z,30.31
2022-08-11T08:12:28.694Z,30.42
2022-08-11T08:15:15.336Z,30.40
2022-08-11T08:18:09.915Z,30.56
2022-08-11T08:20:45.441Z,30.92
2022-08-11T08:23:14.153Z,31.19
2022-08-11T08:25:44.580Z,31.38
2022-08-11T08:28:17.520Z,31.61
2022-08-11T08:30:49.869Z,31.80
2022-08-11T08:33:23.007Z,31.99
2022-08-11T08:36:11.817Z,32.17
2022-08-11T08:38:41.967Z,32.33
2022-08-11T08:41:13.997Z,32.53
2022-08-11T08:43:49.903Z,32.79
2022-08-11T08:46:21.783Z,32.88
2022-08-11T08:48:53.145Z,32.92
2022-08-11T08:52:01.381Z,32.99
2022-08-11T08:54:30.770Z,33.19
2022-08-11T08:56:59.182Z,33.39
2022-08-11T08:59:44.927Z,33.63
2022-08-11T09:02:17.554Z,33.79
2022-08-11T09:04:47.806Z,33.77
2022-08-11T09:07:18.699Z,33.93
2022-08-11T09:09:50.447Z,33.98
2022-08-11T09:12:35.679Z,34.12
2022-08-11T09:15:11.565Z,34.35
2022-08-11T09:17:42.450Z,34.38
2022-08-11T09:20:14.203Z,34.48
2022-08-11T09:26:10.000Z,34.89
2022-08-11T09:28:38.719Z,34.91
2022-08-11T09:31:08.678Z,34.99
2022-08-11T09:33:37.458Z,34.99
2022-08-11T09:36:22.318Z,35.12
2022-08-11T09:39:09.321Z,35.32
2022-08-11T09:42:01.730Z,35.52
2022-08-11T09:44:43.952Z,35.59
2022-08-11T09:47:15.496Z,35.76
2022-08-11T09:49:45.663Z,35.75
2022-08-11T09:52:15.123Z,35.84
2022-08-11T09:54:48.226Z,36.03
2022-08-11T09:57:37.650Z,36.03
2022-08-11T10:00:12.316Z,36.10
2022-08-11T10:02:45.272Z,36.15
2022-08-11T10:05:35.967Z,36.28
2022-08-11T10:08:05.745Z,36.45
2022-08-11T10:10:37.661Z,36.52
2022-08-11T10:14:03.723Z,36.56
2022-08-11T10:16:03.628Z,36.33
2022-08-11T10:18:52.528Z,36.43
2022-08-11T10:21:28.481Z,36.45
2022-08-11T10:24:17.223Z,36.54
2022-08-11T10:26:58.863Z,36.61
2022-08-11T10:30:04.237Z,36.71
2022-08-11T10:32:58.454Z,36.65
2022-08-11T10:35:30.669Z,36.57
2022-08-11T10:38:08.785Z,36.55
2022-08-11T10:40:40.784Z,36.72
2022-08-11T10:43:13.713Z,36.88
2022-08-11T10:46:03.082Z,36.97
2022-08-11T10:48:33.611Z,37.05
2022-08-11T10:51:14.250Z,37.16
2022-08-11T10:54:03.664Z,37.11
2022-08-11T10:56:51.855Z,37.03
2022-08-11T10:59:20.156Z,37.13
2022-08-11T11:01:48.339Z,37.07
2022-08-11T11:04:18.615Z,37.05
2022-08-11T11:07:04.402Z,37.13
2022-08-11T11:09:34.316Z,37.36
2022-08-11T11:12:25.690Z,37.55
2022-08-11T11:15:17.681Z,37.65
2022-08-11T11:18:01.553Z,37.65
2022-08-11T11:20:37.778Z,37.64
2022-08-11T11:23:17.141Z,37.49
2022-08-11T11:26:11.091Z,37.55
2022-08-11T11:29:03.530Z,37.56
2022-08-11T11:31:44.334Z,37.67
2022-08-11T11:34:21.994Z,37.80
2022-08-11T11:36:51.623Z,37.83
2022-08-11T11:39:24.499Z,37.91
2022-08-11T11:41:54.941Z,38.07
2022-08-11T11:44:24.640Z,38.25
2022-08-11T11:46:54.148Z,37.94
2022-08-11T11:51:53.849Z,37.84
2022-08-11T11:54:27.124Z,37.71
2022-08-11T11:56:57.572Z,37.77
2022-08-11T11:59:45.935Z,37.75
2022-08-11T12:02:17.000Z,37.79
2022-08-11T12:04:50.686Z,37.71
2022-08-11T12:07:36.700Z,37.81
2022-08-11T12:10:09.037Z,37.95
2022-08-11T12:12:55.311Z,38.12
2022-08-11T12:16:04.362Z,38.37
2022-08-11T12:18:12.408Z,38.49
2022-08-11T12:20:40.756Z,38.50
2022-08-11T12:23:26.133Z,38.64
2022-08-11T12:26:28.438Z,38.59
2022-08-11T12:28:58.242Z,38.67
2022-08-11T12:31:26.668Z,38.69
2022-08-11T12:33:56.030Z,38.66
2022-08-11T12:36:24.305Z,38.54
2022-08-11T12:38:54.600Z,38.44
2022-08-11T12:41:42.545Z,38.58
2022-08-11T12:44:42.006Z,38.63
2022-08-11T12:47:11.093Z,38.72
2022-08-11T12:50:02.830Z,38.80
2022-08-11T12:52:35.462Z,38.89
2022-08-11T12:55:13.514Z,38.83
2022-08-11T12:58:05.370Z,38.71
2022-08-11T13:00:51.498Z,38.67
2022-08-11T13:03:38.972Z,38.84
2022-08-11T13:06:08.629Z,38.93
2022-08-11T13:08:41.348Z,38.95
2022-08-11T13:11:54.586Z,38.90
2022-08-11T13:14:18.302Z,39.00
2022-08-11T13:17:05.499Z,39.11
2022-08-11T13:19:34.509Z,39.16
2022-08-11T13:22:07.536Z,39.09
2022-08-11T13:24:36.952Z,39.20
2022-08-11T13:27:05.495Z,39.21
2022-08-11T13:29:36.730Z,39.06
2022-08-11T13:32:05.228Z,39.06
2022-08-11T13:34:33.513Z,39.21
2022-08-11T13:37:04.255Z,39.45
2022-08-11T13:39:34.546Z,39.38
2022-08-11T13:42:04.305Z,39.31
2022-08-11T13:44:36.052Z,39.29
2022-08-11T13:47:05.775Z,39.26
2022-08-11T13:49:37.076Z,39.20
2022-08-11T13:52:12.910Z,39.10
2022-08-11T13:54:42.553Z,39.10
2022-08-11T13:58:08.059Z,39.07
2022-08-11T14:00:24.993Z,39.22
2022-08-11T14:02:58.043Z,39.14
2022-08-11T14:05:29.253Z,39.24
2022-08-11T14:08:02.412Z,39.05
2022-08-11T14:10:33.473Z,39.02
2022-08-11T14:13:21.620Z,39.05
2022-08-11T14:15:52.779Z,39.18
2022-08-11T14:18:23.721Z,39.29
2022-08-11T14:21:13.850Z,39.34
2022-08-11T14:23:43.759Z,39.35
2022-08-11T14:26:26.962Z,39.32
2022-08-11T14:29:02.465Z,39.40
2022-08-11T14:31:33.942Z,39.34
2022-08-11T14:34:05.434Z,39.32
2022-08-11T14:36:36.322Z,39.37
2022-08-11T14:39:08.141Z,39.31
2022-08-11T14:42:11.229Z,39.29
2022-08-11T14:45:01.740Z,39.34
2022-08-11T14:47:34.681Z,39.38
2022-08-11T14:50:10.777Z,39.38
2022-08-11T14:52:45.008Z,39.35
2022-08-11T14:55:31.976Z,39.20
2022-08-11T14:58:01.821Z,39.08
2022-08-11T15:00:30.230Z,39.08
2022-08-11T15:03:12.107Z,39.14
2022-08-11T15:05:57.127Z,38.94
2022-08-11T15:08:42.316Z,39.01
2022-08-11T15:11:32.414Z,38.99
2022-08-11T15:14:02.234Z,39.02
2022-08-11T15:16:48.519Z,39.01
2022-08-11T15:19:21.142Z,39.01
2022-08-11T15:22:07.305Z,38.88
2022-08-11T15:24:36.633Z,38.73
2022-08-11T15:27:27.856Z,38.45
2022-08-11T15:30:29.881Z,38.28
2022-08-11T15:33:24.617Z,38.28
2022-08-11T15:36:13.358Z,38.32
2022-08-11T15:38:45.490Z,38.34
2022-08-11T15:41:43.150Z,38.31
2022-08-11T15:45:01.977Z,38.15
2022-08-11T15:47:37.609Z,37.91
2022-08-11T15:50:13.637Z,37.84
2022-08-11T15:52:50.787Z,37.68
2022-08-11T15:55:20.416Z,37.67
2022-08-11T15:58:09.265Z,37.80
2022-08-11T16:00:58.910Z,37.78
2022-08-11T16:04:07.474Z,37.80
2022-08-11T16:06:40.457Z,37.80
2022-08-11T16:09:19.271Z,37.83
2022-08-11T16:11:49.310Z,37.73
2022-08-11T16:14:36.175Z,37.58
2022-08-11T16:17:05.548Z,37.42
2022-08-11T16:19:36.500Z,37.38
2022-08-11T16:22:09.193Z,37.43
2022-08-11T16:27:03.824Z,37.46
2022-08-11T16:27:35.104Z,37.45
2022-08-11T16:30:05.183Z,37.35
2022-08-11T16:32:34.463Z,37.28
2022-08-11T16:35:24.172Z,37.29
2022-08-11T16:38:12.105Z,37.14
2022-08-11T16:40:42.762Z,36.98
2022-08-11T16:43:33.320Z,36.83
2022-08-11T16:46:33.252Z,36.75
2022-08-11T16:49:04.076Z,36.77
2022-08-11T16:51:32.956Z,36.74
2022-08-11T16:54:05.884Z,36.63
2022-08-11T16:56:39.918Z,36.51
2022-08-11T16:59:15.277Z,36.38
2022-08-11T17:01:53.138Z,36.33
2022-08-11T17:04:46.491Z,36.13
2022-08-11T17:07:42.024Z,36.08
2022-08-11T17:10:51.076Z,36.02
2022-08-11T17:13:27.454Z,36.00
2022-08-11T17:16:08.446Z,36.01
2022-08-11T17:18:43.236Z,35.93
2022-08-11T17:21:16.149Z,35.76
2022-08-11T17:23:50.298Z,35.62
2022-08-11T17:26:21.910Z,35.55
2022-08-11T17:28:57.438Z,35.47
2022-08-11T17:31:50.741Z,35.39
2022-08-11T17:34:36.706Z,35.18
2022-08-11T17:37:05.953Z,35.06
2022-08-11T17:39:35.808Z,34.97
2022-08-11T17:42:21.665Z,34.90
2022-08-11T17:45:10.224Z,34.83
2022-08-11T17:47:57.170Z,34.78
2022-08-11T17:50:26.374Z,34.69
2022-08-11T17:53:12.206Z,34.65
2022-08-11T17:55:58.333Z,34.54
2022-08-11T17:58:45.104Z,34.44
2022-08-11T18:01:15.680Z,34.37
2022-08-11T18:03:56.414Z,34.31
2022-08-11T18:06:33.527Z,34.24
2022-08-11T18:09:22.462Z,34.14
2022-08-11T18:12:11.515Z,33.98
2022-08-11T18:15:00.837Z,33.89
2022-08-11T18:17:48.052Z,33.79
2022-08-11T18:20:33.521Z,33.72
2022-08-11T18:23:46.064Z,33.62
2022-08-11T18:26:30.605Z,33.48
2022-08-11T18:29:18.014Z,33.37
2022-08-11T18:32:08.112Z,33.26
2022-08-11T18:34:59.304Z,33.14
2022-08-11T18:37:49.625Z,33.04
2022-08-11T18:40:37.828Z,32.96
2022-08-11T18:43:27.413Z,32.88
2022-08-11T18:46:18.880Z,32.77
2022-08-11T18:49:15.629Z,32.64
2022-08-11T18:52:05.672Z,32.54
2022-08-11T18:54:54.942Z,32.43
2022-08-11T18:57:49.629Z,32.34
2022-08-11T19:00:40.623Z,32.23
2022-08-11T19:03:27.863Z,32.12
2022-08-11T19:06:38.901Z,31.97
2022-08-11T19:09:26.881Z,31.86
2022-08-11T19:12:13.667Z,31.76
2022-08-11T19:15:01.048Z,31.65
2022-08-11T19:17:50.032Z,31.56
2022-08-11T19:20:38.633Z,31.43
2022-08-11T19:23:26.358Z,31.30
2022-08-11T19:26:14.715Z,31.19
2022-08-11T19:29:02.581Z,31.07
2022-08-11T19:31:48.310Z,30.98
2022-08-11T19:34:35.979Z,30.89
2022-08-11T19:37:25.027Z,30.80
2022-08-11T19:40:11.917Z,30.71
2022-08-11T19:42:59.909Z,30.59
2022-08-11T19:45:45.904Z,30.45
2022-08-11T19:48:39.994Z,30.29
2022-08-11T19:51:27.144Z,30.19
2022-08-11T19:54:13.610Z,30.03
2022-08-11T19:57:00.343Z,29.90
2022-08-11T19:59:48.208Z,29.77
2022-08-11T20:02:33.491Z,29.67
2022-08-11T20:05:19.120Z,29.59
2022-08-11T20:08:05.582Z,29.53
2022-08-11T20:10:52.889Z,29.43
2022-08-11T20:13:42.654Z,29.30
2022-08-11T20:16:32.552Z,29.24
2022-08-11T20:19:20.225Z,29.17
2022-08-11T20:22:12.527Z,29.12
2022-08-11T20:24:59.784Z,29.06
2022-08-11T20:27:46.216Z,28.99
2022-08-11T20:30:32.317Z,28.95
2022-08-11T20:33:19.403Z,28.86
2022-08-11T20:36:08.684Z,28.77
2022-08-11T20:38:55.704Z,28.69
2022-08-11T20:41:58.097Z,28.61
2022-08-11T20:44:46.738Z,28.53
2022-08-11T20:47:56.231Z,28.48
2022-08-11T20:50:45.624Z,28.41
2022-08-11T20:53:35.838Z,28.33
2022-08-11T20:56:22.722Z,28.27
2022-08-11T20:59:18.153Z,28.23
2022-08-11T21:02:10.102Z,28.19
2022-08-11T21:04:56.919Z,28.13
2022-08-11T21:07:55.385Z,28.07
2022-08-11T21:10:44.757Z,27.95
2022-08-11T21:13:34.241Z,27.86
2022-08-11T21:16:25.530Z,27.78
2022-08-11T21:19:15.802Z,27.71
2022-08-11T21:22:03.818Z,27.58
2022-08-11T21:24:51.612Z,27.51
2022-08-11T21:27:40.708Z,27.43
2022-08-11T21:30:27.573Z,27.35
2022-08-11T21:33:13.599Z,27.30
2022-08-11T21:36:00.959Z,27.22
2022-08-11T21:38:47.709Z,27.15
2022-08-11T21:41:35.436Z,27.12
2022-08-11T21:44:22.565Z,27.06
2022-08-11T21:47:09.304Z,27.06
2022-08-11T21:49:58.055Z,27.04
2022-08-11T21:52:44.288Z,27.01
2022-08-11T21:55:29.767Z,27.00
2022-08-11T21:58:18.590Z,26.97
2022-08-11T22:01:04.295Z,26.95
2022-08-11T22:03:50.631Z,26.92
2022-08-11T22:06:36.794Z,26.89
2022-08-11T22:09:22.425Z,26.87
2022-08-11T22:12:30.211Z,26.81
2022-08-11T22:15:15.429Z,26.75
2022-08-11T22:18:01.846Z,26.69
2022-08-11T22:20:48.462Z,26.65
2022-08-11T22:23:36.296Z,26.58
2022-08-11T22:26:24.386Z,26.54
2022-08-11T22:29:10.938Z,26.44
2022-08-11T22:31:59.104Z,26.37
2022-08-11T22:34:53.373Z,26.32
2022-08-11T22:37:40.334Z,26.26
2022-08-11T22:40:27.655Z,26.20
2022-08-11T22:43:13.206Z,26.11
2022-08-11T22:45:58.982Z,26.05
2022-08-11T22:48:47.729Z,25.99
2022-08-11T22:51:34.414Z,25.91
2022-08-11T22:54:21.373Z,25.88
2022-08-11T22:57:08.037Z,25.82
2022-08-11T22:59:55.580Z,25.79
2022-08-11T23:02:41.046Z,25.72
2022-08-11T23:05:28.882Z,25.68
2022-08-11T23:08:14.525Z,25.64
2022-08-11T23:11:01.408Z,25.65
2022-08-11T23:13:48.960Z,25.63
2022-08-11T23:16:35.401Z,25.60
2022-08-11T23:20:06.787Z,25.59
2022-08-11T23:22:49.352Z,25.57
2022-08-11T23:25:34.670Z,25.56
2022-08-11T23:28:20.862Z,25.53
2022-08-11T23:31:08.449Z,25.49
2022-08-11T23:33:58.711Z,25.44
2022-08-11T23:36:47.636Z,25.37
2022-08-11T23:39:35.376Z,25.35
2022-08-11T23:42:21.253Z,25.34
2022-08-11T23:45:09.438Z,25.34
2022-08-11T23:47:57.688Z,25.33
2022-08-11T23:50:43.085Z,25.31
2022-08-11T23:53:28.493Z,25.27
2022-08-11T23:56:15.443Z,25.23
2022-08-11T23:59:01.265Z,25.18
